createdAt,value
2022-10-13T00:00:33.272Z,8.23
2022-10-13T00:01:33.641Z,8.26
2022-10-13T00:02:33.250Z,8.22
2022-10-13T00:03:33.255Z,8.18
2022-10-13T00:04:33.230Z,8.08
2022-10-13T00:05:33.293Z,8.04
2022-10-13T00:06:33.207Z,8.01
2022-10-13T00:07:33.195Z,7.93
2022-10-13T00:08:33.194Z,7.89
2022-10-13T00:09:33.182Z,7.86
2022-10-13T00:10:33.166Z,7.80
2022-10-13T00:11:33.159Z,7.75
2022-10-13T00:12:33.145Z,7.72
2022-10-13T00:13:33.202Z,7.71
2022-10-13T00:14:33.124Z,7.69
2022-10-13T00:15:33.139Z,7.69
2022-10-13T00:16:33.155Z,7.69
2022-10-13T00:17:33.097Z,7.64
2022-10-13T00:18:33.077Z,7.63
2022-10-13T00:19:33.082Z,7.64
2022-10-13T00:20:33.058Z,7.67
2022-10-13T00:21:33.101Z,7.64
2022-10-13T00:22:33.098Z,7.61
2022-10-13T00:23:33.033Z,7.55
2022-10-13T00:24:33.015Z,7.52
2022-10-13T00:25:32.999Z,7.50
2022-10-13T00:26:32.991Z,7.48
2022-10-13T00:27:32.977Z,7.46
2022-10-13T00:28:33.045Z,7.45
2022-10-13T00:29:32.973Z,7.35
2022-10-13T00:30:32.955Z,7.35
2022-10-13T00:31:32.973Z,7.31
2022-10-13T00:32:32.949Z,7.30
2022-10-13T00:33:32.910Z,7.34
2022-10-13T00:34:32.895Z,7.39
2022-10-13T00:35:32.891Z,7.40
2022-10-13T00:36:32.903Z,7.43
2022-10-13T00:37:32.868Z,7.50
2022-10-13T00:38:32.881Z,7.60
2022-10-13T00:39:32.891Z,7.67
2022-10-13T00:40:32.877Z,7.74
2022-10-13T00:41:32.839Z,7.80
2022-10-13T00:42:32.823Z,7.83
2022-10-13T00:43:32.820Z,7.86
2022-10-13T00:44:32.836Z,7.95
2022-10-13T00:45:32.791Z,8.02
2022-10-13T00:46:32.783Z,8.07
2022-10-13T00:47:32.754Z,8.10
2022-10-13T00:48:32.756Z,8.10
2022-10-13T00:49:32.742Z,8.12
2022-10-13T00:50:32.738Z,8.15
2022-10-13T00:51:32.724Z,8.20
2022-10-13T00:52:32.719Z,8.23
2022-10-13T00:53:32.690Z,8.25
2022-10-13T00:54:32.698Z,8.26
2022-10-13T00:55:32.698Z,8.30
2022-10-13T00:56:32.673Z,8.30
2022-10-13T00:57:32.659Z,8.30
2022-10-13T00:58:32.666Z,8.26
2022-10-13T00:59:32.638Z,8.28
2022-10-13T01:00:32.657Z,8.29
2022-10-13T01:01:32.619Z,8.29
2022-10-13T01:02:33.008Z,8.23
2022-10-13T01:03:32.612Z,8.28
2022-10-13T01:04:32.597Z,8.28
2022-10-13T01:05:32.593Z,8.28
2022-10-13T01:06:32.622Z,8.30
2022-10-13T01:07:32.616Z,8.29
2022-10-13T01:08:32.536Z,8.30
2022-10-13T01:09:32.538Z,8.29
2022-10-13T01:10:32.529Z,8.34
2022-10-13T01:11:32.505Z,8.34
2022-10-13T01:12:32.491Z,8.33
2022-10-13T01:13:32.487Z,8.34
2022-10-13T01:14:32.478Z,8.34
2022-10-13T01:15:32.509Z,8.36
2022-10-13T01:16:32.480Z,8.37
2022-10-13T01:17:32.437Z,8.38
2022-10-13T01:18:32.433Z,8.38
2022-10-13T01:19:32.419Z,8.40
2022-10-13T01:20:32.431Z,8.41
2022-10-13T01:21:32.396Z,8.43
2022-10-13T01:22:32.497Z,8.45
2022-10-13T01:23:32.384Z,8.48
2022-10-13T01:24:32.385Z,8.48
2022-10-13T01:25:32.407Z,8.48
2022-10-13T01:26:32.336Z,8.45
2022-10-13T01:27:32.348Z,8.47
2022-10-13T01:28:32.405Z,8.44
2022-10-13T01:29:32.333Z,8.45
2022-10-13T01:30:32.316Z,8.47
2022-10-13T01:31:32.343Z,8.45
2022-10-13T01:32:32.288Z,8.47
2022-10-13T01:33:32.330Z,8.45
2022-10-13T01:34:32.256Z,8.45
2022-10-13T01:35:32.251Z,8.47
2022-10-13T01:36:32.259Z,8.47
2022-10-13T01:37:32.233Z,8.50
2022-10-13T01:38:32.236Z,8.52
2022-10-13T01:39:32.269Z,8.50
2022-10-13T01:40:32.243Z,8.48
2022-10-13T01:41:32.204Z,8.48
2022-10-13T01:42:32.235Z,8.50
2022-10-13T01:43:32.165Z,8.50
2022-10-13T01:44:32.177Z,8.50
2022-10-13T01:45:32.137Z,8.45
2022-10-13T01:46:32.149Z,8.44
2022-10-13T01:47:32.115Z,8.40
2022-10-13T01:48:32.131Z,8.40
2022-10-13T01:49:32.103Z,8.34
2022-10-13T01:50:32.093Z,8.33
2022-10-13T01:51:32.089Z,8.30
2022-10-13T01:52:32.075Z,8.28
2022-10-13T01:53:32.062Z,8.25
2022-10-13T01:54:32.052Z,8.28
2022-10-13T01:55:32.096Z,8.29
2022-10-13T01:56:32.045Z,8.30
2022-10-13T01:57:32.011Z,8.33
2022-10-13T01:58:32.038Z,8.34
2022-10-13T01:59:32.018Z,8.37
2022-10-13T02:00:32.011Z,8.36
2022-10-13T02:01:31.976Z,8.30
2022-10-13T02:02:31.977Z,8.30
2022-10-13T02:03:31.968Z,8.30
2022-10-13T02:04:32.070Z,8.28
2022-10-13T02:05:31.936Z,8.28
2022-10-13T02:06:31.940Z,8.26
2022-10-13T02:07:31.927Z,8.25
2022-10-13T02:08:31.898Z,8.23
2022-10-13T02:09:31.931Z,8.18
2022-10-13T02:10:31.898Z,8.15
2022-10-13T02:11:31.888Z,8.08
2022-10-13T02:12:31.858Z,8.05
2022-10-13T02:13:31.858Z,8.01
2022-10-13T02:14:31.845Z,7.97
2022-10-13T02:15:31.836Z,7.92
2022-10-13T02:16:31.826Z,7.89
2022-10-13T02:17:31.810Z,7.85
2022-10-13T02:18:31.935Z,7.87
2022-10-13T02:19:31.805Z,7.92
2022-10-13T02:20:31.761Z,7.97
2022-10-13T02:21:31.782Z,7.98
2022-10-13T02:22:31.767Z,7.97
2022-10-13T02:23:31.754Z,7.92
2022-10-13T02:24:31.715Z,7.87
2022-10-13T02:25:31.747Z,7.75
2022-10-13T02:26:31.709Z,7.64
2022-10-13T02:27:31.683Z,7.61
2022-10-13T02:28:31.733Z,7.57
2022-10-13T02:29:31.697Z,7.58
2022-10-13T02:30:31.667Z,7.60
2022-10-13T02:31:31.665Z,7.53
2022-10-13T02:32:31.665Z,7.50
2022-10-13T02:33:31.635Z,7.45
2022-10-13T02:34:31.632Z,7.40
2022-10-13T02:35:31.678Z,7.34
2022-10-13T02:36:31.595Z,7.31
2022-10-13T02:37:31.596Z,7.30
2022-10-13T02:38:31.586Z,7.27
2022-10-13T02:39:31.607Z,7.27
2022-10-13T02:40:31.563Z,7.25
2022-10-13T02:41:31.580Z,7.27
2022-10-13T02:42:31.576Z,7.25
2022-10-13T02:43:31.531Z,7.25
2022-10-13T02:44:31.530Z,7.21
2022-10-13T02:45:31.531Z,7.21
2022-10-13T02:46:31.521Z,7.21
2022-10-13T02:47:31.493Z,7.21
2022-10-13T02:48:31.482Z,7.20
2022-10-13T02:49:31.473Z,7.20
2022-10-13T02:50:31.465Z,7.24
2022-10-13T02:51:34.171Z,7.23
2022-10-13T02:52:32.436Z,7.23
2022-10-13T02:53:31.449Z,7.25
2022-10-13T02:54:31.400Z,7.23
2022-10-13T02:55:31.420Z,7.23
2022-10-13T02:56:31.391Z,7.21
2022-10-13T02:57:31.402Z,7.20
2022-10-13T02:58:31.378Z,7.21
2022-10-13T02:59:31.359Z,7.21
2022-10-13T03:00:31.403Z,7.25
2022-10-13T03:01:31.348Z,7.28
2022-10-13T03:02:31.325Z,7.28
2022-10-13T03:03:31.324Z,7.27
2022-10-13T03:04:31.326Z,7.28
2022-10-13T03:05:31.311Z,7.25
2022-10-13T03:06:31.519Z,7.27
2022-10-13T03:07:31.296Z,7.25
2022-10-13T03:08:31.287Z,7.24
2022-10-13T03:09:31.246Z,7.25
2022-10-13T03:10:31.252Z,7.25
2022-10-13T03:11:31.247Z,7.24
2022-10-13T03:12:31.229Z,7.24
2022-10-13T03:13:31.244Z,7.24
2022-10-13T03:14:31.207Z,7.24
2022-10-13T03:15:31.201Z,7.24
2022-10-13T03:16:31.179Z,7.24
2022-10-13T03:17:31.222Z,7.24
2022-10-13T03:18:31.166Z,7.20
2022-10-13T03:19:31.147Z,7.20
2022-10-13T03:20:31.133Z,7.17
2022-10-13T03:21:31.145Z,7.21
2022-10-13T03:22:31.150Z,7.20
2022-10-13T03:23:31.132Z,7.21
2022-10-13T03:24:31.122Z,7.23
2022-10-13T03:25:31.088Z,7.21
2022-10-13T03:26:31.069Z,7.23
2022-10-13T03:27:31.076Z,7.24
2022-10-13T03:28:31.112Z,7.24
2022-10-13T03:29:31.042Z,7.24
2022-10-13T03:30:31.023Z,7.25
2022-10-13T03:31:31.009Z,7.30
2022-10-13T03:32:31.038Z,7.30
2022-10-13T03:33:31.012Z,7.30
2022-10-13T03:34:30.995Z,7.31
2022-10-13T03:35:30.994Z,7.32
2022-10-13T03:36:30.996Z,7.35
2022-10-13T03:37:30.982Z,7.31
2022-10-13T03:38:30.934Z,7.32
2022-10-13T03:39:30.945Z,7.34
2022-10-13T03:40:30.930Z,7.34
2022-10-13T03:41:30.900Z,7.34
2022-10-13T03:42:30.892Z,7.32
2022-10-13T03:43:30.899Z,7.32
2022-10-13T03:44:30.885Z,7.30
2022-10-13T03:45:30.906Z,7.30
2022-10-13T03:46:30.891Z,7.30
2022-10-13T03:47:30.873Z,7.31
2022-10-13T03:48:30.838Z,7.32
2022-10-13T03:49:30.819Z,7.30
2022-10-13T03:50:30.816Z,7.31
2022-10-13T03:51:30.838Z,7.31
2022-10-13T03:52:30.808Z,7.32
2022-10-13T03:53:30.799Z,7.31
2022-10-13T03:54:30.780Z,7.31
2022-10-13T03:55:30.766Z,7.28
2022-10-13T03:56:30.763Z,7.27
2022-10-13T03:57:30.754Z,7.25
2022-10-13T03:58:30.735Z,7.25
2022-10-13T03:59:35.680Z,7.23
2022-10-13T04:00:31.732Z,7.24
2022-10-13T04:01:30.762Z,7.24
2022-10-13T04:02:30.706Z,7.23
2022-10-13T04:03:30.701Z,7.21
2022-10-13T04:04:30.671Z,7.23
2022-10-13T04:05:30.663Z,7.24
2022-10-13T04:06:30.666Z,7.27
2022-10-13T04:07:30.836Z,7.28
2022-10-13T04:08:30.637Z,7.30
2022-10-13T04:09:30.630Z,7.32
2022-10-13T04:10:30.593Z,7.34
2022-10-13T04:11:30.583Z,7.39
2022-10-13T04:12:30.586Z,7.35
2022-10-13T04:13:30.587Z,7.37
2022-10-13T04:14:30.563Z,7.37
2022-10-13T04:15:30.556Z,7.34
2022-10-13T04:16:30.587Z,7.35
2022-10-13T04:17:30.536Z,7.32
2022-10-13T04:18:30.522Z,7.32
2022-10-13T04:19:30.537Z,7.32
2022-10-13T04:20:30.510Z,7.34
2022-10-13T04:21:30.500Z,7.32
2022-10-13T04:22:30.487Z,7.31
2022-10-13T04:23:30.478Z,7.32
2022-10-13T04:24:30.468Z,7.31
2022-10-13T04:25:30.460Z,7.30
2022-10-13T04:26:30.441Z,7.30
2022-10-13T04:27:30.442Z,7.31
2022-10-13T04:28:30.474Z,7.35
2022-10-13T04:29:30.407Z,7.35
2022-10-13T04:30:30.395Z,7.39
2022-10-13T04:31:30.404Z,7.40
2022-10-13T04:32:30.384Z,7.40
2022-10-13T04:33:30.364Z,7.40
2022-10-13T04:34:30.376Z,7.43
2022-10-13T04:35:30.366Z,7.48
2022-10-13T04:36:30.326Z,7.48
2022-10-13T04:37:30.339Z,7.46
2022-10-13T04:38:30.354Z,7.46
2022-10-13T04:39:30.323Z,7.53
2022-10-13T04:40:30.287Z,7.52
2022-10-13T04:41:30.282Z,7.55
2022-10-13T04:42:30.267Z,7.55
2022-10-13T04:43:30.262Z,7.57
2022-10-13T04:44:30.257Z,7.60
2022-10-13T04:45:30.231Z,7.68
2022-10-13T04:46:30.223Z,7.71
2022-10-13T04:47:33.505Z,7.71
2022-10-13T04:48:31.204Z,7.69
2022-10-13T04:49:30.191Z,7.68
2022-10-13T04:50:30.197Z,7.68
2022-10-13T04:51:30.169Z,7.67
2022-10-13T04:52:30.171Z,7.68
2022-10-13T04:53:30.180Z,7.64
2022-10-13T04:54:30.142Z,7.64
2022-10-13T04:55:30.125Z,7.63
2022-10-13T04:56:30.156Z,7.63
2022-10-13T04:57:30.110Z,7.61
2022-10-13T04:58:30.076Z,7.63
2022-10-13T04:59:30.092Z,7.64
2022-10-13T05:00:30.167Z,7.64
2022-10-13T05:01:30.075Z,7.68
2022-10-13T05:02:30.059Z,7.71
2022-10-13T05:03:30.036Z,7.72
2022-10-13T05:04:30.037Z,7.74
2022-10-13T05:05:30.028Z,7.74
2022-10-13T05:06:30.036Z,7.77
2022-10-13T05:07:30.026Z,7.77
2022-10-13T05:08:30.225Z,7.79
2022-10-13T05:09:30.067Z,7.77
2022-10-13T05:10:34.569Z,7.79
2022-10-13T05:11:29.970Z,7.77
2022-10-13T05:12:29.962Z,7.77
2022-10-13T05:13:29.936Z,7.79
2022-10-13T05:14:29.924Z,7.79
2022-10-13T05:15:29.929Z,7.80
2022-10-13T05:16:29.916Z,7.80
2022-10-13T05:17:34.258Z,7.82
2022-10-13T05:18:30.893Z,7.80
2022-10-13T05:19:29.884Z,7.82
2022-10-13T05:20:30.148Z,7.82
2022-10-13T05:21:29.861Z,7.82
2022-10-13T05:22:29.852Z,7.82
2022-10-13T05:23:29.849Z,7.80
2022-10-13T05:24:29.810Z,7.80
2022-10-13T05:25:33.693Z,7.82
2022-10-13T05:26:29.808Z,7.82
2022-10-13T05:27:29.793Z,7.82
2022-10-13T05:28:29.814Z,7.85
2022-10-13T05:29:29.775Z,7.87
2022-10-13T05:30:29.751Z,7.92
2022-10-13T05:31:29.768Z,7.95
2022-10-13T05:32:29.739Z,7.97
2022-10-13T05:33:29.724Z,7.97
2022-10-13T05:34:29.812Z,7.93
2022-10-13T05:35:29.713Z,7.92
2022-10-13T05:36:29.704Z,7.92
2022-10-13T05:37:29.755Z,7.95
2022-10-13T05:38:29.665Z,7.93
2022-10-13T05:39:29.673Z,7.90
2022-10-13T05:40:29.728Z,7.89
2022-10-13T05:41:29.654Z,7.90
2022-10-13T05:42:29.640Z,7.90
2022-10-13T05:43:29.632Z,7.90
2022-10-13T05:44:29.607Z,7.90
2022-10-13T05:45:29.604Z,7.90
2022-10-13T05:46:29.589Z,7.89
2022-10-13T05:47:29.573Z,7.89
2022-10-13T05:48:29.551Z,7.90
2022-10-13T05:49:29.563Z,7.89
2022-10-13T05:50:29.538Z,7.89
2022-10-13T05:51:29.534Z,7.89
2022-10-13T05:52:29.515Z,7.87
2022-10-13T05:53:29.530Z,7.87
2022-10-13T05:54:29.508Z,7.83
2022-10-13T05:55:29.506Z,7.83
2022-10-13T05:56:29.480Z,7.83
2022-10-13T05:57:29.471Z,7.85
2022-10-13T05:58:29.458Z,7.85
2022-10-13T05:59:29.460Z,7.85
2022-10-13T06:00:29.406Z,7.86
2022-10-13T06:01:29.500Z,7.86
2022-10-13T06:02:29.443Z,7.86
2022-10-13T06:03:29.394Z,7.86
2022-10-13T06:04:29.410Z,7.87
2022-10-13T06:05:29.380Z,7.86
2022-10-13T06:06:31.571Z,7.89
2022-10-13T06:07:29.367Z,7.90
2022-10-13T06:08:29.362Z,7.90
2022-10-13T06:09:29.334Z,7.92
2022-10-13T06:10:29.360Z,7.93
2022-10-13T06:11:29.553Z,7.95
2022-10-13T06:12:29.304Z,7.97
2022-10-13T06:13:29.294Z,7.98
2022-10-13T06:14:29.293Z,8.00
2022-10-13T06:15:29.347Z,8.01
2022-10-13T06:16:29.282Z,8.00
2022-10-13T06:17:29.283Z,8.02
2022-10-13T06:18:29.235Z,8.02
2022-10-13T06:19:29.222Z,8.02
2022-10-13T06:20:29.223Z,8.04
2022-10-13T06:21:29.224Z,8.05
2022-10-13T06:22:29.200Z,8.07
2022-10-13T06:23:29.191Z,8.07
2022-10-13T06:24:29.191Z,8.10
2022-10-13T06:25:29.167Z,8.08
2022-10-13T06:26:29.158Z,8.08
2022-10-13T06:27:29.149Z,8.11
2022-10-13T06:28:29.175Z,8.12
2022-10-13T06:29:29.131Z,8.12
2022-10-13T06:30:29.108Z,8.15
2022-10-13T06:31:29.104Z,8.15
2022-10-13T06:32:29.090Z,8.16
2022-10-13T06:33:29.081Z,8.18
2022-10-13T06:34:29.067Z,8.18
2022-10-13T06:35:29.256Z,8.18
2022-10-13T06:36:29.051Z,8.19
2022-10-13T06:37:29.042Z,8.22
2022-10-13T06:38:29.036Z,8.25
2022-10-13T06:39:29.018Z,8.26
2022-10-13T06:40:29.071Z,8.28
2022-10-13T06:41:28.994Z,8.28
2022-10-13T06:42:29.021Z,8.30
2022-10-13T06:43:34.531Z,8.30
2022-10-13T06:44:29.992Z,8.33
2022-10-13T06:45:28.949Z,8.34
2022-10-13T06:46:28.951Z,8.38
2022-10-13T06:47:28.938Z,8.37
2022-10-13T06:48:28.933Z,8.38
2022-10-13T06:49:28.920Z,8.41
2022-10-13T06:50:28.930Z,8.41
2022-10-13T06:51:28.896Z,8.44
2022-10-13T06:52:28.913Z,8.44
2022-10-13T06:53:28.883Z,8.45
2022-10-13T06:54:28.863Z,8.48
2022-10-13T06:55:28.876Z,8.53
2022-10-13T06:56:28.842Z,8.53
2022-10-13T06:57:28.839Z,8.58
2022-10-13T06:58:28.819Z,8.61
2022-10-13T06:59:28.814Z,8.63
2022-10-13T07:00:28.824Z,8.65
2022-10-13T07:01:28.792Z,8.68
2022-10-13T07:02:28.793Z,8.68
2022-10-13T07:03:28.810Z,8.70
2022-10-13T07:04:28.776Z,8.73
2022-10-13T07:05:28.722Z,8.74
2022-10-13T07:06:28.772Z,8.77
2022-10-13T07:07:28.779Z,8.74
2022-10-13T07:08:28.720Z,8.77
2022-10-13T07:09:28.727Z,8.79
2022-10-13T07:10:28.687Z,8.80
2022-10-13T07:11:28.739Z,8.86
2022-10-13T07:12:28.700Z,8.89
2022-10-13T07:13:30.372Z,8.91
2022-10-13T07:14:28.653Z,8.98
2022-10-13T07:15:28.654Z,8.99
2022-10-13T07:16:28.630Z,9.02
2022-10-13T07:17:28.619Z,9.08
2022-10-13T07:18:28.591Z,9.13
2022-10-13T07:19:28.581Z,9.17
2022-10-13T07:20:28.589Z,9.20
2022-10-13T07:21:28.608Z,9.26
2022-10-13T07:22:28.565Z,9.32
2022-10-13T07:23:29.585Z,9.38
2022-10-13T07:24:28.532Z,9.43
2022-10-13T07:25:28.524Z,9.50
2022-10-13T07:26:28.519Z,9.54
2022-10-13T07:27:28.503Z,9.58
2022-10-13T07:28:28.555Z,9.61
2022-10-13T07:29:28.494Z,9.65
2022-10-13T07:30:28.511Z,9.66
2022-10-13T07:31:28.445Z,9.69
2022-10-13T07:32:28.491Z,9.71
2022-10-13T07:33:28.443Z,9.74
2022-10-13T07:34:28.428Z,9.75
2022-10-13T07:35:30.842Z,9.79
2022-10-13T07:36:28.430Z,9.81
2022-10-13T07:37:28.427Z,9.86
2022-10-13T07:38:28.409Z,9.87
2022-10-13T07:39:28.373Z,9.87
2022-10-13T07:40:28.360Z,9.90
2022-10-13T07:41:28.508Z,9.94
2022-10-13T07:42:28.349Z,9.99
2022-10-13T07:43:28.328Z,10.04
2022-10-13T07:44:28.390Z,10.11
2022-10-13T07:45:28.331Z,10.15
2022-10-13T07:46:28.307Z,10.20
2022-10-13T07:47:28.302Z,10.25
2022-10-13T07:48:28.450Z,10.30
2022-10-13T07:49:28.275Z,10.32
2022-10-13T07:50:28.376Z,10.36
2022-10-13T07:51:28.264Z,10.42
2022-10-13T07:52:28.233Z,10.51
2022-10-13T07:53:28.225Z,10.55
2022-10-13T07:54:28.225Z,10.61
2022-10-13T07:55:28.207Z,10.68
2022-10-13T07:56:28.197Z,10.76
2022-10-13T07:57:28.201Z,10.85
2022-10-13T07:58:28.175Z,10.94
2022-10-13T07:59:28.181Z,11.03
2022-10-13T08:00:28.196Z,11.10
2022-10-13T08:01:28.214Z,11.17
2022-10-13T08:02:28.158Z,11.21
2022-10-13T08:03:28.209Z,11.29
2022-10-13T08:04:28.124Z,11.39
2022-10-13T08:05:28.163Z,11.49
2022-10-13T08:06:28.500Z,11.61
2022-10-13T08:07:28.080Z,11.76
2022-10-13T08:08:28.066Z,11.85
2022-10-13T08:09:28.057Z,12.01
2022-10-13T08:10:28.047Z,12.14
2022-10-13T08:11:28.018Z,12.23
2022-10-13T08:12:28.020Z,12.31
2022-10-13T08:13:28.008Z,12.42
2022-10-13T08:14:28.100Z,12.49
2022-10-13T08:15:28.059Z,12.56
2022-10-13T08:16:28.056Z,12.67
2022-10-13T08:17:27.952Z,12.77
2022-10-13T08:18:27.959Z,12.82
2022-10-13T08:19:28.003Z,12.86
2022-10-13T08:20:36.194Z,12.92
2022-10-13T08:21:56.402Z,12.97
2022-10-13T08:22:28.970Z,12.96
2022-10-13T08:23:27.917Z,13.00
2022-10-13T08:24:27.885Z,12.96
2022-10-13T08:25:27.881Z,13.01
2022-10-13T08:26:27.886Z,13.01
2022-10-13T08:27:47.642Z,13.07
2022-10-13T08:28:28.911Z,13.15
2022-10-13T08:29:27.874Z,13.22
2022-10-13T08:30:27.910Z,13.19
2022-10-13T08:31:28.005Z,13.26
2022-10-13T08:32:27.828Z,13.29
2022-10-13T08:33:27.793Z,13.36
2022-10-13T08:34:27.785Z,13.45
2022-10-13T08:35:32.517Z,13.52
2022-10-13T08:36:28.751Z,13.57
2022-10-13T08:37:28.192Z,13.55
2022-10-13T08:38:27.764Z,13.54
2022-10-13T08:39:27.761Z,13.54
2022-10-13T08:40:27.732Z,13.55
2022-10-13T08:41:27.734Z,13.59
2022-10-13T08:42:27.704Z,13.59
2022-10-13T08:43:27.725Z,13.52
2022-10-13T08:45:40.841Z,13.52
2022-10-13T08:46:28.706Z,13.54
2022-10-13T08:47:27.628Z,13.57
2022-10-13T08:48:27.625Z,13.57
2022-10-13T08:49:27.634Z,13.57
2022-10-13T08:50:27.611Z,13.62
2022-10-13T08:51:27.648Z,13.69
2022-10-13T08:52:27.631Z,13.78
2022-10-13T08:53:27.585Z,13.82
2022-10-13T08:54:27.612Z,13.91
2022-10-13T08:55:27.622Z,13.95
2022-10-13T08:56:27.566Z,14.02
2022-10-13T08:57:27.547Z,14.10
2022-10-13T08:58:27.597Z,14.18
2022-10-13T08:59:27.512Z,14.22
2022-10-13T09:00:27.493Z,14.22
2022-10-13T09:01:27.556Z,14.21
2022-10-13T09:02:27.525Z,14.24
2022-10-13T09:03:27.777Z,14.32
2022-10-13T09:04:27.489Z,14.45
2022-10-13T09:05:27.484Z,14.45
2022-10-13T09:06:27.505Z,14.50
2022-10-13T09:07:27.431Z,14.60
2022-10-13T09:08:27.432Z,14.68
2022-10-13T09:09:27.414Z,14.61
2022-10-13T09:10:27.399Z,14.70
2022-10-13T09:11:27.386Z,14.95
2022-10-13T09:12:27.406Z,15.23
2022-10-13T09:13:27.386Z,15.51
2022-10-13T09:14:27.360Z,15.56
2022-10-13T09:15:27.340Z,15.44
2022-10-13T09:16:27.513Z,15.28
2022-10-13T09:17:27.317Z,15.10
2022-10-13T09:18:27.334Z,15.10
2022-10-13T09:19:27.299Z,15.10
2022-10-13T09:20:27.341Z,15.02
2022-10-13T09:21:27.306Z,15.07
2022-10-13T09:22:27.288Z,15.07
2022-10-13T09:23:27.274Z,14.98
2022-10-13T09:24:27.295Z,14.96
2022-10-13T09:25:27.225Z,14.84
2022-10-13T09:26:27.237Z,14.84
2022-10-13T09:27:27.253Z,14.89
2022-10-13T09:28:27.322Z,14.86
2022-10-13T09:29:27.226Z,14.92
2022-10-13T09:30:27.192Z,15.01
2022-10-13T09:31:27.199Z,15.03
2022-10-13T09:32:27.178Z,15.07
2022-10-13T09:33:27.151Z,15.11
2022-10-13T09:34:27.151Z,15.19
2022-10-13T09:35:27.126Z,15.19
2022-10-13T09:36:27.148Z,15.21
2022-10-13T09:37:27.110Z,15.28
2022-10-13T09:38:27.155Z,15.31
2022-10-13T09:39:27.106Z,15.34
2022-10-13T09:40:27.072Z,15.38
2022-10-13T09:41:27.130Z,15.46
2022-10-13T09:42:27.054Z,15.56
2022-10-13T09:43:27.030Z,15.56
2022-10-13T09:44:27.733Z,15.59
2022-10-13T09:45:27.018Z,15.62
2022-10-13T09:46:27.015Z,15.65
2022-10-13T09:47:27.087Z,15.72
2022-10-13T09:48:26.996Z,15.71
2022-10-13T09:49:26.978Z,15.75
2022-10-13T09:50:26.975Z,15.80
2022-10-13T09:51:26.955Z,15.87
2022-10-13T09:52:26.955Z,16.02
2022-10-13T09:53:26.951Z,16.14
2022-10-13T09:54:27.084Z,16.33
2022-10-13T09:55:32.016Z,16.41
2022-10-13T09:56:27.903Z,16.39
2022-10-13T09:57:26.941Z,16.49
2022-10-13T09:58:26.887Z,16.60
2022-10-13T09:59:26.894Z,16.68
2022-10-13T10:00:26.875Z,16.83
2022-10-13T10:01:26.837Z,16.86
2022-10-13T10:02:27.434Z,16.91
2022-10-13T10:03:26.908Z,16.96
2022-10-13T10:04:26.858Z,17.03
2022-10-13T10:05:26.805Z,17.03
2022-10-13T10:06:27.946Z,17.04
2022-10-13T10:07:26.799Z,17.11
2022-10-13T10:08:33.561Z,17.14
2022-10-13T10:09:27.748Z,17.19
2022-10-13T10:10:26.760Z,17.28
2022-10-13T10:11:26.741Z,17.33
2022-10-13T10:12:27.911Z,17.33
2022-10-13T10:13:26.724Z,17.36
2022-10-13T10:14:26.723Z,17.31
2022-10-13T10:15:26.713Z,17.36
2022-10-13T10:16:26.717Z,17.40
2022-10-13T10:17:26.703Z,17.41
2022-10-13T10:18:26.729Z,17.49
2022-10-13T10:19:26.641Z,17.64
2022-10-13T10:20:26.673Z,17.72
2022-10-13T10:21:26.622Z,17.71
2022-10-13T10:22:26.625Z,17.75
2022-10-13T10:23:26.655Z,17.71
2022-10-13T10:24:26.611Z,17.68
2022-10-13T10:25:26.627Z,17.59
2022-10-13T10:26:31.610Z,17.51
2022-10-13T10:27:27.570Z,17.48
2022-10-13T10:28:26.619Z,17.36
2022-10-13T10:29:26.568Z,17.40
2022-10-13T10:30:26.537Z,17.38
2022-10-13T10:31:26.514Z,17.37
2022-10-13T10:32:26.606Z,17.36
2022-10-13T10:33:26.499Z,17.37
2022-10-13T10:34:26.498Z,17.38
2022-10-13T10:35:26.493Z,17.49
2022-10-13T10:36:26.474Z,17.58
2022-10-13T10:37:26.487Z,17.63
2022-10-13T10:38:26.457Z,17.71
2022-10-13T10:39:26.443Z,17.72
2022-10-13T10:40:26.426Z,17.68
2022-10-13T10:41:26.413Z,17.58
2022-10-13T10:42:26.406Z,17.54
2022-10-13T10:43:26.414Z,17.43
2022-10-13T10:44:26.408Z,17.34
2022-10-13T10:45:26.364Z,17.25
2022-10-13T10:46:26.356Z,17.31
2022-10-13T10:47:26.610Z,17.38
2022-10-13T10:48:26.337Z,17.38
2022-10-13T10:49:26.409Z,17.44
2022-10-13T10:50:26.309Z,17.51
2022-10-13T10:51:26.484Z,17.54
2022-10-13T10:52:26.334Z,17.55
2022-10-13T10:53:26.278Z,17.54
2022-10-13T10:54:26.253Z,17.51
2022-10-13T10:55:26.281Z,17.51
2022-10-13T10:56:26.276Z,17.55
2022-10-13T10:57:26.247Z,17.58
2022-10-13T10:58:26.239Z,17.58
2022-10-13T10:59:26.275Z,17.49
2022-10-13T11:01:26.303Z,17.28
2022-10-13T11:02:26.218Z,17.23
2022-10-13T11:03:26.173Z,17.23
2022-10-13T11:04:26.176Z,17.16
2022-10-13T11:05:26.176Z,17.11
2022-10-13T11:06:26.138Z,17.04
2022-10-13T11:07:26.163Z,17.01
2022-10-13T11:08:26.119Z,16.97
2022-10-13T11:09:26.126Z,16.86
2022-10-13T11:10:26.116Z,16.78
2022-10-13T11:11:28.635Z,16.79
2022-10-13T11:12:26.078Z,16.76
2022-10-13T11:13:26.089Z,16.75
2022-10-13T11:14:26.067Z,16.73
2022-10-13T11:15:26.077Z,16.75
2022-10-13T11:16:26.032Z,16.70
2022-10-13T11:17:26.033Z,16.67
2022-10-13T11:18:26.017Z,16.63
2022-10-13T11:19:26.059Z,16.57
2022-10-13T11:20:26.114Z,16.50
2022-10-13T11:21:25.998Z,16.50
2022-10-13T11:22:26.016Z,16.50
2022-10-13T11:23:25.985Z,16.52
2022-10-13T11:24:25.953Z,16.53
2022-10-13T11:25:25.960Z,16.52
2022-10-13T11:26:25.924Z,16.57
2022-10-13T11:27:25.976Z,16.58
2022-10-13T11:28:25.966Z,16.58
2022-10-13T11:29:25.928Z,16.58
2022-10-13T11:30:25.932Z,16.61
2022-10-13T11:31:25.890Z,16.67
2022-10-13T11:32:25.935Z,16.73
2022-10-13T11:33:25.887Z,16.78
2022-10-13T11:34:25.837Z,16.79
2022-10-13T11:35:25.835Z,16.81
2022-10-13T11:36:25.820Z,16.82
2022-10-13T11:37:25.818Z,16.88
2022-10-13T11:38:25.805Z,16.88
2022-10-13T11:39:25.850Z,16.94
2022-10-13T11:40:25.782Z,16.98
2022-10-13T11:41:25.772Z,17.00
2022-10-13T11:42:25.737Z,16.96
2022-10-13T11:43:25.793Z,16.89
2022-10-13T11:44:25.764Z,16.89
2022-10-13T11:45:25.719Z,16.93
2022-10-13T11:46:25.779Z,16.86
2022-10-13T11:47:25.706Z,16.82
2022-10-13T11:48:25.676Z,16.78
2022-10-13T11:49:25.671Z,16.78
2022-10-13T11:50:25.673Z,16.79
2022-10-13T11:51:25.835Z,16.79
2022-10-13T11:52:25.658Z,16.79
2022-10-13T11:53:25.630Z,16.76
2022-10-13T11:54:25.604Z,16.79
2022-10-13T11:55:25.596Z,16.81
2022-10-13T11:56:25.597Z,16.79
2022-10-13T11:57:25.588Z,16.79
2022-10-13T11:58:25.577Z,16.78
2022-10-13T11:59:25.566Z,16.78
2022-10-13T12:00:25.562Z,16.81
2022-10-13T12:01:25.582Z,16.83
2022-10-13T12:02:26.192Z,16.89
2022-10-13T12:03:25.515Z,16.89
2022-10-13T12:04:25.503Z,16.89
2022-10-13T12:05:25.492Z,16.93
2022-10-13T12:06:25.495Z,16.98
2022-10-13T12:07:25.475Z,17.08
2022-10-13T12:08:25.471Z,17.14
2022-10-13T12:09:25.446Z,17.21
2022-10-13T12:10:25.473Z,17.23
2022-10-13T12:11:25.429Z,17.21
2022-10-13T12:12:25.421Z,17.28
2022-10-13T12:13:25.459Z,17.30
2022-10-13T12:14:25.423Z,17.30
2022-10-13T12:15:25.389Z,17.33
2022-10-13T12:16:25.375Z,17.37
2022-10-13T12:17:25.830Z,17.41
2022-10-13T12:18:25.351Z,17.49
2022-10-13T12:19:25.340Z,17.54
2022-10-13T12:20:25.335Z,17.58
2022-10-13T12:21:25.319Z,17.64
2022-10-13T12:22:25.518Z,17.70
2022-10-13T12:23:25.308Z,17.78
2022-10-13T12:24:25.283Z,17.86
2022-10-13T12:25:25.306Z,17.95
2022-10-13T12:26:25.299Z,18.10
2022-10-13T12:27:25.270Z,18.14
2022-10-13T12:28:25.252Z,18.25
2022-10-13T12:29:25.245Z,18.33
2022-10-13T12:30:25.226Z,18.25
2022-10-13T12:31:25.215Z,18.26
2022-10-13T12:32:25.219Z,18.26
2022-10-13T12:33:25.208Z,18.32
2022-10-13T12:34:25.180Z,18.35
2022-10-13T12:35:25.196Z,18.26
2022-10-13T12:36:25.166Z,18.23
2022-10-13T12:37:25.168Z,18.25
2022-10-13T12:38:25.175Z,18.36
2022-10-13T12:39:25.135Z,18.45
2022-10-13T12:40:25.164Z,18.41
2022-10-13T12:41:25.131Z,18.36
2022-10-13T12:42:25.129Z,18.30
2022-10-13T12:43:25.086Z,18.32
2022-10-13T12:44:25.080Z,18.36
2022-10-13T12:45:25.074Z,18.42
2022-10-13T12:46:25.058Z,18.36
2022-10-13T12:47:25.145Z,18.45
2022-10-13T12:48:25.030Z,18.52
2022-10-13T12:49:25.044Z,18.47
2022-10-13T12:50:25.007Z,18.60
2022-10-13T12:51:25.085Z,18.66
2022-10-13T12:52:25.021Z,18.73
2022-10-13T12:53:25.041Z,18.78
2022-10-13T12:54:24.984Z,18.81
2022-10-13T12:55:24.957Z,18.82
2022-10-13T12:56:24.949Z,18.95
2022-10-13T12:57:24.949Z,18.85
2022-10-13T12:58:24.950Z,18.82
2022-10-13T12:59:24.932Z,18.78
2022-10-13T13:00:25.079Z,18.76
2022-10-13T13:01:24.909Z,18.87
2022-10-13T13:02:24.886Z,19.18
2022-10-13T13:03:24.887Z,19.54
2022-10-13T13:04:24.877Z,19.84
2022-10-13T13:05:24.863Z,19.73
2022-10-13T13:06:24.826Z,19.54
2022-10-13T13:07:24.826Z,19.48
2022-10-13T13:08:24.822Z,19.29
2022-10-13T13:09:24.805Z,19.22